Time;durP1;ratioP1;P1;durP2;ratioP2;P2;SDS_P1;SDS_P2;PMS_P1;PMS_P2;Temp;Humidity;BMP_temperature;BMP_pressure;BME280_temperature;BME280_humidity;BME280_pressure;Samples;Min_cycle;Max_cycle;Signal;HPM_P1;HPM_P2
2022/06/01 00:02:15;;;;;;;10.00;9.00;;;;;;;12.17;70.04;100008.53;5099235;28;20486;-66
2022/06/01 00:04:42;;;;;;;9.57;8.40;;;;;;;12.14;69.95;100003.50;5100672;28;20463;-67
2022/06/01 00:07:09;;;;;;;12.83;9.30;;;;;;;12.15;69.91;99997.13;5104976;28;20494;-67
2022/06/01 00:09:36;;;;;;;9.53;8.40;;;;;;;12.13;69.79;99994.59;5103103;28;20458;-67
2022/06/01 00:12:03;;;;;;;10.40;8.50;;;;;;;12.14;70.23;99985.56;5111207;28;20482;-67
2022/06/01 00:14:30;;;;;;;10.20;8.90;;;;;;;12.11;70.44;99985.88;5103694;28;20451;-65
2022/06/01 00:16:58;;;;;;;9.20;8.30;;;;;;;11.97;71.09;99989.13;5103114;28;20475;-67
2022/06/01 00:19:25;;;;;;;9.77;8.90;;;;;;;12.15;69.33;99989.09;5102925;28;20451;-67
2022/06/01 00:24:37;;;;;;;9.10;8.20;;;;;;;11.98;69.86;99988.97;5102182;28;20446;-67
2022/06/01 00:27:04;;;;;;;9.40;8.40;;;;;;;11.90;70.45;99985.38;5102981;28;20483;-66
2022/06/01 00:29:31;;;;;;;9.20;7.93;;;;;;;11.87;69.20;99986.50;5100828;28;20451;-67
2022/06/01 00:31:59;;;;;;;11.50;8.00;;;;;;;12.06;67.93;99980.16;5083048;28;20484;-66
2022/06/01 00:34:26;;;;;;;9.93;8.10;;;;;;;12.16;67.90;99982.75;5099215;28;20457;-67
2022/06/01 00:36:52;;;;;;;9.13;8.30;;;;;;;12.15;68.01;99986.41;5102719;28;20467;-66
2022/06/01 00:39:19;;;;;;;9.47;8.57;;;;;;;12.10;68.28;99988.72;5103484;28;20455;-67
2022/06/01 00:41:46;;;;;;;10.13;8.20;;;;;;;12.15;68.18;99987.28;5102089;28;21116;-67
2022/06/01 00:44:13;;;;;;;9.03;8.10;;;;;;;12.08;68.54;99996.06;5101882;28;20483;-65
2022/06/01 00:46:40;;;;;;;12.03;8.40;;;;;;;11.94;68.81;99990.28;5102065;28;20659;-67
2022/06/01 00:49:16;;;;;;;10.60;8.80;;;;;;;11.99;68.64;99976.41;5094135;28;20460;-66
2022/06/01 00:51:43;;;;;;;10.60;7.93;;;;;;;12.14;67.42;99972.16;5102365;28;20486;-67
2022/06/01 00:54:11;;;;;;;9.40;7.80;;;;;;;12.10;67.90;99988.72;5101027;28;20497;-67
2022/06/01 00:56:41;;;;;;;8.90;7.70;;;;;;;11.99;68.20;99987.97;5096966;28;20486;-68
2022/06/01 00:59:10;;;;;;;9.60;8.53;;;;;;;12.00;68.39;99978.13;5101368;28;20463;-67
2022/06/01 01:01:37;;;;;;;8.90;7.83;;;;;;;11.92;68.65;99980.72;5081896;28;20497;-67
2022/06/01 01:04:05;;;;;;;8.70;7.90;;;;;;;11.86;68.85;99977.63;5100435;28;20509;-67
2022/06/01 01:06:36;;;;;;;11.10;7.57;;;;;;;11.87;69.63;99986.50;5102008;28;20459;-66
2022/06/01 01:09:04;;;;;;;9.70;7.70;;;;;;;11.80;69.48;99977.41;5100982;28;20562;-67
2022/06/01 01:11:34;;;;;;;8.03;7.23;;;;;;;11.77;69.43;99977.72;5101547;28;20499;-67
2022/06/01 01:14:02;;;;;;;10.13;8.30;;;;;;;11.73;70.23;99977.19;5101948;28;20455;-66
2022/06/01 01:16:31;;;;;;;8.17;7.37;;;;;;;11.82;69.53;99983.44;5081852;28;20534;-65
2022/06/01 01:18:58;;;;;;;8.50;7.60;;;;;;;11.75;70.78;99979.72;5102604;28;20447;-67
2022/06/01 01:21:29;;;;;;;8.50;7.07;;;;;;;11.72;70.93;99985.38;5100347;28;20529;-67
2022/06/01 01:24:04;;;;;;;8.90;8.00;;;;;;;11.80;70.00;99988.13;5101504;28;20486;-67
2022/06/01 01:26:33;;;;;;;8.43;7.63;;;;;;;11.78;69.70;99982.09;5101802;28;21065;-66
2022/06/01 01:29:00;;;;;;;8.63;7.80;;;;;;;11.93;68.78;99993.97;5101474;28;20504;-65
2022/06/01 01:31:27;;;;;;;8.53;7.63;;;;;;;11.90;69.45;99996.91;5101024;28;20497;-66
2022/06/01 01:33:56;;;;;;;9.77;7.70;;;;;;;11.87;69.87;99999.91;5101569;28;20447;-66
2022/06/01 01:36:28;;;;;;;9.43;8.23;;;;;;;11.84;69.88;100005.59;5100680;28;20528;-67
2022/06/01 01:38:57;;;;;;;10.13;9.10;;;;;;;11.90;69.71;99998.75;5101850;28;20455;-66
2022/06/01 01:41:27;;;;;;;9.10;8.30;;;;;;;11.83;70.42;100004.72;5101363;28;20466;-67
2022/06/01 01:44:00;;;;;;;10.23;9.23;;;;;;;11.92;70.64;100003.00;5100681;28;20537;-67
2022/06/01 01:46:27;;;;;;;11.60;10.43;;;;;;;11.90;70.47;100006.81;5081088;28;20470;-66
2022/06/01 01:48:54;;;;;;;13.43;10.70;;;;;;;11.79;71.19;100002.53;5098324;28;20466;-67
2022/06/01 01:51:21;;;;;;;9.93;9.03;;;;;;;11.83;71.54;100006.56;5100655;28;20513;-67
2022/06/01 01:53:49;;;;;;;10.60;9.60;;;;;;;11.79;71.66;99998.00;5113969;28;20474;-67
2022/06/01 01:56:23;;;;;;;12.30;11.10;;;;;;;11.65;72.17;99998.56;5121316;28;20492;-66
2022/06/01 01:59:04;;;;;;;12.10;10.80;;;;;;;11.62;72.30;100002.38;5121649;28;20453;-66
2022/06/01 02:01:40;;;;;;;11.00;9.87;;;;;;;11.67;72.23;99996.56;5121667;28;20538;-67
2022/06/01 02:06:03;;;;;;;10.80;9.43;;;;;;;11.61;72.76;99995.34;5120744;28;21051;-67
2022/06/01 02:07:01;;;;;;;13.30;10.40;;;;;;;11.53;73.25;99999.75;5120317;28;20470;-67
2022/06/01 02:12:40;;;;;;;11.13;10.03;;;;;;;11.39;73.99;100003.84;5122156;28;20457;-68
2022/06/01 02:15:01;;;;;;;12.00;10.70;;;;;;;11.29;74.62;100010.09;5121399;28;20483;-67
2022/06/01 02:17:38;;;;;;;11.83;10.53;;;;;;;11.30;74.63;100002.88;5121213;28;20485;-67
2022/06/01 02:20:10;;;;;;;12.40;11.10;;;;;;;11.24;75.17;99996.31;5121998;28;20887;-67
2022/06/01 02:22:38;;;;;;;14.93;10.73;;;;;;;11.26;75.55;100002.34;5118203;28;20561;-66
2022/06/01 02:25:05;;;;;;;12.30;11.10;;;;;;;11.17;76.06;99994.41;5121214;28;20481;-67
2022/06/01 02:27:32;;;;;;;12.70;11.40;;;;;;;11.27;75.53;99990.66;5120782;28;20465;-67
2022/06/01 02:30:03;;;;;;;13.73;11.30;;;;;;;11.28;75.35;99987.00;5121238;28;20446;-66
2022/06/01 02:32:30;;;;;;;12.63;11.33;;;;;;;11.28;76.05;99996.84;5121066;28;20986;-68
2022/06/01 02:35:00;;;;;;;11.83;10.63;;;;;;;11.27;76.31;99992.50;5120819;28;20522;-67
2022/06/01 02:37:29;;;;;;;13.30;11.30;;;;;;;11.23;76.64;99996.47;5121256;28;21005;-68
2022/06/01 02:39:57;;;;;;;14.33;12.23;;;;;;;11.18;76.79;99999.59;5121539;28;20458;-68
2022/06/01 02:42:26;;;;;;;12.63;11.43;;;;;;;11.14;76.51;99998.22;5120121;28;20856;-67
2022/06/01 02:44:53;;;;;;;13.00;11.80;;;;;;;11.10;76.35;100003.03;5120143;28;20482;-68
2022/06/01 02:47:22;;;;;;;13.80;12.10;;;;;;;11.08;76.10;100002.34;5121566;28;21041;-68
2022/06/01 02:49:48;;;;;;;13.80;11.43;;;;;;;10.98;75.97;100001.53;5121227;28;20457;-67
2022/06/01 02:52:15;;;;;;;14.20;12.67;;;;;;;10.93;76.09;100001.97;5120824;28;20503;-68
2022/06/01 02:54:42;;;;;;;14.23;12.83;;;;;;;10.91;76.46;100003.97;5094602;28;20569;-67
2022/06/01 02:57:09;;;;;;;13.70;12.50;;;;;;;10.92;75.88;100011.00;5099700;28;20909;-67
2022/06/01 02:59:36;;;;;;;13.77;12.47;;;;;;;10.89;76.37;100021.16;5094125;28;20460;-67
2022/06/01 03:02:06;;;;;;;13.03;11.70;;;;;;;10.95;76.46;100020.56;5082506;28;20487;-67
2022/06/01 03:04:34;;;;;;;12.97;11.40;;;;;;;11.03;76.32;100017.16;5096617;28;20479;-67
2022/06/01 03:07:02;;;;;;;13.47;12.17;;;;;;;11.00;75.93;100017.44;5098600;28;20491;-67
2022/06/01 03:09:29;;;;;;;13.60;12.17;;;;;;;10.99;75.78;100008.59;5096252;28;20460;-67
2022/06/01 03:11:55;;;;;;;14.43;12.93;;;;;;;11.17;75.30;100010.47;5100316;28;20510;-67
2022/06/01 03:14:22;;;;;;;14.27;12.97;;;;;;;11.18;75.29;100007.63;5100262;28;20483;-67
2022/06/01 03:16:49;;;;;;;13.57;12.20;;;;;;;11.08;75.96;100015.72;5098419;28;20565;-68
2022/06/01 03:19:16;;;;;;;13.70;12.30;;;;;;;11.11;75.81;100011.91;5092310;28;20454;-67
2022/06/01 03:21:44;;;;;;;14.03;12.73;;;;;;;11.10;75.69;100016.41;5095461;28;20510;-68
2022/06/01 03:24:11;;;;;;;13.70;12.40;;;;;;;11.08;75.66;100014.88;5100775;28;20483;-68
2022/06/01 03:26:38;;;;;;;13.93;12.60;;;;;;;10.91;76.52;100014.66;5098158;28;20475;-67
2022/06/01 03:29:05;;;;;;;13.63;12.30;;;;;;;10.85;76.46;100025.97;5098748;28;20458;-66
2022/06/01 03:31:32;;;;;;;13.50;12.30;;;;;;;10.85;76.83;100017.94;5099921;28;20471;-66
2022/06/01 03:33:58;;;;;;;15.53;14.00;;;;;;;10.80;77.12;100022.91;5100863;28;20467;-67
2022/06/01 03:36:25;;;;;;;14.23;12.83;;;;;;;10.84;76.85;100020.78;5096179;28;20505;-66
2022/06/01 03:38:53;;;;;;;14.40;13.00;;;;;;;10.91;76.46;100020.00;5084375;28;20450;-67
2022/06/01 03:41:20;;;;;;;14.37;13.00;;;;;;;10.85;76.66;100025.13;5099393;28;20574;-66
2022/06/01 03:46:32;;;;;;;14.53;13.07;;;;;;;10.84;76.60;100013.59;5073631;28;20501;-67
2022/06/01 03:48:59;;;;;;;15.50;14.00;;;;;;;10.80;76.69;100016.69;5082311;28;20459;-67
2022/06/01 03:51:26;;;;;;;14.13;12.73;;;;;;;10.70;76.93;100017.59;5096016;28;20506;-66
2022/06/01 03:53:55;;;;;;;14.27;12.83;;;;;;;10.73;76.62;100019.97;5108791;28;20481;-65
2022/06/01 03:56:22;;;;;;;13.37;12.13;;;;;;;10.78;76.53;100030.22;5123806;28;21009;-66
2022/06/01 03:58:49;;;;;;;15.00;13.50;;;;;;;11.27;75.76;100024.63;5123699;28;20450;-67
2022/06/01 04:01:17;;;;;;;14.80;12.93;;;;;;;12.48;69.92;100026.81;5123343;28;20919;-66
2022/06/01 04:03:43;;;;;;;12.80;11.70;;;;;;;13.59;66.02;100037.50;5123371;28;20470;-65
2022/06/01 04:06:10;;;;;;;13.07;11.87;;;;;;;14.51;62.94;100034.63;5121226;28;20516;-65
2022/06/01 04:08:36;;;;;;;12.00;10.80;;;;;;;14.64;60.88;100034.97;5123327;28;20477;-67
2022/06/01 04:11:05;;;;;;;11.37;10.30;;;;;;;14.34;61.67;100038.34;5117880;28;20493;-66
2022/06/01 04:13:32;;;;;;;11.87;10.13;;;;;;;14.18;62.57;100029.28;5117752;28;20464;-67
2022/06/01 04:15:58;;;;;;;12.87;10.20;;;;;;;13.35;64.71;100032.94;5117610;28;20478;-66
2022/06/01 04:18:25;;;;;;;10.67;9.67;;;;;;;13.43;65.72;100032.13;5124324;28;20488;-67
2022/06/01 04:20:53;;;;;;;11.30;10.20;;;;;;;14.48;62.57;100041.19;5121666;28;20499;-65
2022/06/01 04:23:20;;;;;;;11.43;10.27;;;;;;;15.48;58.97;100037.13;5122010;28;20450;-66
2022/06/01 04:25:47;;;;;;;10.17;9.23;;;;;;;15.76;57.92;100040.19;5118432;28;20491;-66
2022/06/01 04:28:15;;;;;;;9.33;8.43;;;;;;;15.96;56.32;100027.03;5130117;27;20486;-67
2022/06/01 04:30:42;;;;;;;9.80;8.80;;;;;;;15.74;57.47;100028.69;5121717;27;20492;-68
2022/06/01 04:33:09;;;;;;;10.13;9.10;;;;;;;16.08;56.15;100040.94;5138461;27;20468;-66
2022/06/01 04:35:36;;;;;;;9.70;8.73;;;;;;;16.15;55.82;100035.66;5126042;27;20477;-67
2022/06/01 04:38:13;;;;;;;10.47;9.47;;;;;;;15.38;57.90;100037.38;5111819;27;21023;-66
2022/06/01 04:40:40;;;;;;;10.17;9.27;;;;;;;15.67;57.70;100043.91;5123319;28;20501;-67
2022/06/01 04:43:07;;;;;;;9.90;9.00;;;;;;;16.60;55.33;100044.66;5121141;28;20476;-68
2022/06/01 04:45:35;;;;;;;12.60;10.00;;;;;;;16.52;54.61;100040.16;5115518;28;20500;-66
2022/06/01 04:48:02;;;;;;;11.00;9.90;;;;;;;17.17;53.50;100042.31;5123430;28;20481;-67
2022/06/01 04:50:29;;;;;;;11.87;10.87;;;;;;;16.40;55.13;100041.66;5114443;28;20514;-65
2022/06/01 04:52:55;;;;;;;12.97;11.77;;;;;;;16.50;54.91;100038.69;5112717;28;20512;-66
2022/06/01 04:55:22;;;;;;;13.63;12.40;;;;;;;16.21;56.49;100043.00;5122371;28;20469;-67
2022/06/01 04:57:49;;;;;;;14.17;12.87;;;;;;;16.22;55.83;100041.16;5111726;28;20457;-68
2022/06/01 05:00:16;;;;;;;15.97;13.33;;;;;;;16.57;55.57;100035.06;5111551;28;20450;-65
2022/06/01 05:02:44;;;;;;;14.63;13.23;;;;;;;16.76;55.00;100040.94;5119535;28;20457;-67
2022/06/01 05:05:11;;;;;;;14.37;13.07;;;;;;;17.14;54.12;100046.25;5122077;28;20489;-67
2022/06/01 05:07:38;;;;;;;14.67;13.30;;;;;;;17.50;53.35;100040.03;5123989;28;20725;-67
2022/06/01 05:10:05;;;;;;;13.93;12.40;;;;;;;17.35;52.94;100048.16;5121688;28;20482;-69
2022/06/01 05:12:32;;;;;;;16.00;14.30;;;;;;;17.31;53.24;100049.59;5122410;28;21027;-69
2022/06/01 05:14:59;;;;;;;16.23;14.73;;;;;;;17.37;53.13;100043.41;5120689;28;20450;-69
2022/06/01 05:17:25;;;;;;;17.10;15.40;;;;;;;16.46;55.57;100051.72;5122844;28;20502;-69
2022/06/01 05:19:53;;;;;;;16.20;14.60;;;;;;;16.89;54.61;100043.00;5119117;28;20462;-71
2022/06/01 05:22:20;;;;;;;19.50;17.50;;;;;;;16.82;55.71;100044.75;5122164;28;20494;-68
2022/06/01 05:24:47;;;;;;;19.33;17.00;;;;;;;17.22;53.80;100048.00;5121566;28;20507;-70
2022/06/01 05:27:13;;;;;;;17.03;15.33;;;;;;;16.91;54.72;100049.91;5116218;28;20474;-69
2022/06/01 05:29:40;;;;;;;17.47;15.67;;;;;;;17.88;51.19;100051.47;5117163;28;20450;-67
2022/06/01 05:32:07;;;;;;;17.10;15.50;;;;;;;17.55;53.09;100059.22;5101649;28;20521;-71
2022/06/01 05:34:34;;;;;;;16.77;15.00;;;;;;;17.65;51.96;100051.66;5101971;28;20469;-68
2022/06/01 05:37:02;;;;;;;17.00;15.40;;;;;;;18.14;51.70;100057.31;5102120;28;20505;-71
2022/06/01 05:39:28;;;;;;;16.73;15.03;;;;;;;17.69;51.87;100057.50;5101743;28;20500;-68
2022/06/01 05:41:55;;;;;;;16.40;14.80;;;;;;;18.67;49.66;100060.44;5115596;28;20470;-69
2022/06/01 05:44:22;;;;;;;15.97;14.37;;;;;;;18.47;49.22;100067.56;5119182;28;20508;-71
2022/06/01 05:46:54;;;;;;;16.10;14.50;;;;;;;16.17;55.43;100068.66;5121849;28;20585;-69
2022/06/01 05:49:21;;;;;;;16.93;15.30;;;;;;;17.79;52.12;100068.81;5122735;28;20541;-70
2022/06/01 05:51:48;;;;;;;16.00;14.50;;;;;;;18.41;49.84;100066.50;5121556;28;20493;-69
2022/06/01 05:54:16;;;;;;;15.97;14.40;;;;;;;17.97;51.52;100067.59;5094189;28;20539;-73
2022/06/01 05:56:42;;;;;;;15.50;13.90;;;;;;;17.92;51.72;100070.03;5086661;28;20520;-68
2022/06/01 05:59:09;;;;;;;15.33;13.80;;;;;;;18.54;49.01;100069.31;5081499;28;20456;-71
2022/06/01 06:01:36;;;;;;;17.43;15.57;;;;;;;18.94;48.76;100066.03;5080599;28;20524;-70
2022/06/01 06:04:03;;;;;;;15.83;14.40;;;;;;;19.73;45.81;100065.50;5095879;28;20469;-68
2022/06/01 06:06:29;;;;;;;15.50;14.00;;;;;;;19.88;45.99;100069.97;5101026;28;20494;-68
2022/06/01 06:08:59;;;;;;;15.60;14.10;;;;;;;17.80;50.00;100067.78;5101947;28;20534;-72
2022/06/01 06:11:29;;;;;;;16.10;14.70;;;;;;;17.61;51.29;100074.66;5101203;28;20470;-68
2022/06/01 06:13:57;;;;;;;16.23;14.57;;;;;;;17.18;52.39;100082.66;5101139;28;20443;-68
2022/06/01 06:16:25;;;;;;;17.03;15.30;;;;;;;16.20;54.90;100073.72;5100100;28;20467;-67
2022/06/01 06:18:55;;;;;;;16.90;15.30;;;;;;;16.36;55.64;100078.13;5101263;28;20462;-68
2022/06/01 06:21:22;;;;;;;17.00;15.30;;;;;;;16.99;53.03;100075.13;5100994;28;20467;-69
2022/06/01 06:23:49;;;;;;;16.17;14.57;;;;;;;17.11;53.33;100087.16;5096956;28;20442;-69
2022/06/01 06:26:16;;;;;;;16.27;14.70;;;;;;;18.39;50.07;100088.34;5103264;28;20991;-68
2022/06/01 06:28:44;;;;;;;16.50;14.90;;;;;;;16.25;55.06;100092.88;5084726;28;20456;-68
2022/06/01 06:31:11;;;;;;;16.57;14.87;;;;;;;16.80;53.35;100088.13;5099195;28;20489;-69
2022/06/01 06:33:40;;;;;;;18.33;16.03;;;;;;;16.48;55.18;100084.75;5099686;28;20431;-71
2022/06/01 06:36:08;;;;;;;18.67;16.83;;;;;;;16.60;54.67;100095.13;5100066;28;20459;-70
2022/06/01 06:38:37;;;;;;;17.60;15.80;;;;;;;16.87;54.28;100097.22;5100634;28;20452;-70
2022/06/01 06:41:05;;;;;;;15.80;14.40;;;;;;;18.77;49.59;100096.13;5099503;28;20478;-69
2022/06/01 06:43:33;;;;;;;14.83;13.43;;;;;;;19.77;45.96;100098.53;5100014;28;20447;-71
2022/06/01 06:46:04;;;;;;;17.17;15.57;;;;;;;20.17;46.00;100100.47;5085039;28;20563;-69
2022/06/01 06:48:30;;;;;;;16.57;15.00;;;;;;;18.90;47.88;100098.09;5079788;28;20467;-68
2022/06/01 06:50:57;;;;;;;17.13;15.53;;;;;;;17.56;51.52;100098.72;5081774;28;20538;-71
2022/06/01 06:53:24;;;;;;;16.67;15.13;;;;;;;17.10;53.26;100096.28;5089792;28;20467;-68
2022/06/01 06:55:51;;;;;;;18.53;16.83;;;;;;;17.29;52.19;100101.13;5099008;28;20475;-69
2022/06/01 06:58:18;;;;;;;18.20;16.50;;;;;;;18.32;50.60;100090.16;5102979;28;20445;-69
2022/06/01 07:00:45;;;;;;;16.57;15.07;;;;;;;18.77;48.04;100090.72;5114743;28;20899;-72
2022/06/01 07:03:13;;;;;;;16.10;14.60;;;;;;;17.91;51.14;100092.69;5120749;28;21037;-71
2022/06/01 07:08:25;;;;;;;16.10;14.67;;;;;;;17.64;51.42;100101.31;5120568;28;20428;-68
2022/06/01 07:10:52;;;;;;;15.70;14.30;;;;;;;18.39;49.76;100091.06;5119280;28;20492;-70
2022/06/01 07:13:19;;;;;;;15.70;14.20;;;;;;;18.50;49.21;100102.38;5120192;28;20974;-71
2022/06/01 07:15:46;;;;;;;15.47;14.00;;;;;;;18.14;49.12;100103.31;5119596;28;20458;-69
2022/06/01 07:18:14;;;;;;;16.40;14.40;;;;;;;17.70;51.18;100108.66;5119874;28;20500;-70
2022/06/01 07:20:41;;;;;;;15.17;13.67;;;;;;;17.45;51.21;100110.88;5107697;28;20486;-68
2022/06/01 07:23:08;;;;;;;16.63;15.10;;;;;;;16.95;53.96;100112.47;5114453;28;20442;-72
2022/06/01 07:25:34;;;;;;;13.37;11.83;;;;;;;17.74;50.18;100109.13;5116357;28;20474;-68
2022/06/01 07:28:01;;;;;;;13.20;12.00;;;;;;;17.67;49.35;100114.47;5099489;28;20462;-68
2022/06/01 07:30:28;;;;;;;13.90;12.50;;;;;;;17.38;52.06;100114.53;5103689;28;20542;-69
2022/06/01 07:32:55;;;;;;;13.57;12.30;;;;;;;17.15;52.68;100125.44;5103343;28;20514;-69
2022/06/01 07:35:23;;;;;;;13.40;12.00;;;;;;;16.92;53.32;100116.38;5116835;28;20977;-68
2022/06/01 07:43:20;;;;;;;12.60;11.30;;;;;;;17.00;51.88;100122.75;5124047;28;20467;-68
2022/06/01 07:45:48;;;;;;;12.37;11.17;;;;;;;17.96;49.53;100117.28;5105327;28;20531;-67
2022/06/01 07:48:16;;;;;;;13.87;11.40;;;;;;;17.75;50.25;100123.50;5102731;28;20471;-67
2022/06/01 07:50:45;;;;;;;13.00;11.70;;;;;;;17.89;50.15;100117.22;5103118;28;20478;-68
2022/06/01 07:53:12;;;;;;;10.60;9.70;;;;;;;18.38;49.06;100121.03;5103496;28;20840;-67
2022/06/01 07:55:41;;;;;;;11.03;10.13;;;;;;;17.46;49.88;100119.81;5105052;28;20544;-69
2022/06/01 07:58:08;;;;;;;10.63;9.73;;;;;;;18.18;49.13;100113.56;5113045;28;20453;-67
2022/06/01 08:00:35;;;;;;;10.87;9.73;;;;;;;17.11;50.79;100124.97;5123278;28;20508;-69
2022/06/01 08:03:01;;;;;;;10.70;9.70;;;;;;;17.47;50.31;100125.03;5123134;28;20453;-69
2022/06/01 08:05:28;;;;;;;10.93;9.83;;;;;;;17.89;50.11;100117.22;5122971;28;20523;-69
2022/06/01 08:07:56;;;;;;;11.73;10.53;;;;;;;18.61;47.50;100127.06;5124273;28;20448;-68
2022/06/01 08:10:23;;;;;;;11.70;10.57;;;;;;;17.90;49.34;100124.31;5122021;28;20487;-69
2022/06/01 08:13:09;;;;;;;11.17;10.00;;;;;;;19.27;44.70;100130.41;5122516;28;20962;-68
2022/06/01 08:15:38;;;;;;;11.33;10.27;;;;;;;20.19;42.82;100129.09;5122157;28;20523;-68
2022/06/01 08:18:05;;;;;;;13.47;10.30;;;;;;;21.12;41.33;100135.56;5123836;28;20507;-69
2022/06/01 08:20:32;;;;;;;10.70;9.70;;;;;;;21.77;39.53;100130.97;5122735;28;20497;-69
2022/06/01 08:23:01;;;;;;;10.10;9.20;;;;;;;23.18;36.68;100125.28;5122388;28;20453;-69
2022/06/01 08:25:29;;;;;;;11.13;9.07;;;;;;;21.32;40.28;100130.06;5121841;28;20462;-69
2022/06/01 08:27:56;;;;;;;10.83;9.73;;;;;;;20.27;42.59;100126.16;5122028;28;20955;-68
2022/06/01 08:30:25;;;;;;;9.80;8.80;;;;;;;18.93;45.82;100126.69;5120438;28;20671;-70
2022/06/01 08:32:53;;;;;;;9.80;8.73;;;;;;;19.05;46.79;100125.09;5123518;28;20434;-69
2022/06/01 08:35:23;;;;;;;10.03;9.03;;;;;;;17.72;48.22;100138.22;5122309;28;20450;-69
2022/06/01 08:37:49;;;;;;;10.23;9.00;;;;;;;18.61;46.77;100120.81;5102818;28;20435;-69
2022/06/01 08:40:20;;;;;;;9.27;8.33;;;;;;;17.95;47.10;100132.69;5101205;28;20451;-68
2022/06/01 08:42:50;;;;;;;10.00;9.00;;;;;;;18.05;47.43;100130.50;5102278;28;20462;-67
2022/06/01 08:45:18;;;;;;;10.73;9.63;;;;;;;17.64;47.69;100132.94;5100194;28;20500;-69
2022/06/01 08:47:45;;;;;;;11.93;8.83;;;;;;;18.08;47.20;100126.56;5102767;28;20456;-69
2022/06/01 08:50:16;;;;;;;10.43;9.37;;;;;;;18.27;46.54;100122.38;5101028;28;20485;-68
2022/06/01 08:52:43;;;;;;;10.60;8.80;;;;;;;17.22;49.39;100126.34;5098469;28;20920;-68
2022/06/01 08:55:10;;;;;;;10.87;9.80;;;;;;;17.55;48.17;100124.09;5100600;28;20820;-66
2022/06/01 08:57:44;;;;;;;10.50;9.50;;;;;;;17.60;49.17;100126.22;5087581;28;20495;-68
2022/06/01 09:00:14;;;;;;;8.60;7.70;;;;;;;16.63;50.13;100124.41;5080338;28;20460;-68
2022/06/01 09:02:49;;;;;;;10.37;9.37;;;;;;;16.16;51.13;100129.88;5081959;28;20456;-68
2022/06/01 09:05:20;;;;;;;10.53;8.73;;;;;;;16.21;52.99;100125.78;5081430;28;20483;-69
2022/06/01 09:07:49;;;;;;;11.23;10.03;;;;;;;16.05;56.32;100124.06;5082131;28;20432;-69
2022/06/01 09:10:32;;;;;;;11.43;10.33;;;;;;;15.93;55.17;100129.84;5080579;28;20475;-68
2022/06/01 09:13:03;;;;;;;11.90;9.93;;;;;;;16.36;54.11;100124.81;5086421;28;20451;-68
2022/06/01 09:15:33;;;;;;;11.80;10.57;;;;;;;16.85;52.92;100123.53;5100216;28;20532;-68
2022/06/01 09:18:01;;;;;;;12.50;11.40;;;;;;;17.53;51.04;100128.00;5102093;28;20427;-67
2022/06/01 09:23:15;;;;;;;9.83;8.83;;;;;;;23.41;37.89;100113.66;5098688;28;20552;-68
2022/06/01 09:25:50;;;;;;;13.47;10.57;;;;;;;24.01;34.95;100128.47;5080478;28;20490;-69
2022/06/01 09:28:21;;;;;;;12.70;9.73;;;;;;;22.17;39.58;100122.56;5085158;28;20450;-69
2022/06/01 09:30:56;;;;;;;9.80;9.00;;;;;;;21.69;40.29;100123.03;5100681;28;20507;-69
2022/06/01 09:33:25;;;;;;;11.70;10.67;;;;;;;20.84;41.75;100120.34;5102083;28;20438;-69
2022/06/01 09:36:02;;;;;;;12.13;11.03;;;;;;;19.80;43.04;100125.25;5092206;28;20475;-71
2022/06/01 09:38:38;;;;;;;10.97;9.93;;;;;;;19.06;47.15;100121.34;5092091;28;20431;-69
2022/06/01 09:41:09;;;;;;;12.97;11.77;;;;;;;19.43;44.31;100126.56;5101226;28;20489;-72
2022/06/01 09:43:39;;;;;;;13.30;12.03;;;;;;;20.88;40.66;100124.31;5100814;28;20820;-69
2022/06/01 09:46:06;;;;;;;10.70;9.70;;;;;;;22.62;38.27;100116.16;5099482;28;20513;-69
2022/06/01 09:48:35;;;;;;;11.23;10.23;;;;;;;21.69;39.77;100123.03;5088905;28;20443;-69
2022/06/01 09:51:07;;;;;;;10.90;9.80;;;;;;;21.37;39.91;100116.66;5093515;28;20462;-72
2022/06/01 09:53:48;;;;;;;10.67;9.63;;;;;;;22.60;37.51;100117.44;5100154;28;20475;-70
2022/06/01 09:56:18;;;;;;;10.40;9.40;;;;;;;21.70;36.93;100102.09;5082537;28;20467;-67
2022/06/01 10:07:20;;;;;;;9.43;8.60;;;;;;;21.86;35.28;100095.34;5079675;28;20478;-72
2022/06/01 10:09:50;;;;;;;7.67;6.97;;;;;;;21.47;38.60;100108.91;5081020;28;20508;-73
2022/06/01 10:12:24;;;;;;;8.07;7.40;;;;;;;20.23;39.22;100095.06;5084199;28;20475;-68
2022/06/01 10:14:54;;;;;;;13.97;8.20;;;;;;;19.69;40.58;100104.94;5099302;28;20486;-72
2022/06/01 10:17:24;;;;;;;8.57;7.80;;;;;;;22.39;36.96;100103.13;5100368;28;20467;-68
2022/06/01 10:19:56;;;;;;;9.00;8.20;;;;;;;20.54;39.36;100100.94;5101232;28;20542;-72
2022/06/01 10:22:31;;;;;;;9.00;8.13;;;;;;;19.50;41.37;100103.84;5085462;28;20483;-68
2022/06/01 10:25:02;;;;;;;10.63;9.50;;;;;;;18.66;43.33;100095.84;5079804;28;20447;-71
2022/06/01 10:27:32;;;;;;;10.90;8.93;;;;;;;18.33;45.16;100105.38;5088184;28;20590;-71
2022/06/01 10:30:07;;;;;;;10.67;9.57;;;;;;;17.75;46.28;100113.50;5080562;28;21144;-72
2022/06/01 10:32:41;;;;;;;11.00;10.00;;;;;;;17.50;47.81;100108.44;5079978;28;20439;-69
2022/06/01 10:35:16;;;;;;;12.13;11.13;;;;;;;17.26;48.53;100103.34;5080340;28;20466;-68
2022/06/01 10:38:04;;;;;;;11.43;10.23;;;;;;;17.94;48.96;100106.66;5079630;28;20432;-71
2022/06/01 10:40:38;;;;;;;13.80;12.60;;;;;;;18.15;47.88;100105.81;5079308;28;20502;-73
2022/06/01 10:43:20;;;;;;;13.60;12.23;;;;;;;17.63;47.91;100105.03;5080448;28;20475;-69
2022/06/01 10:45:52;;;;;;;13.40;12.10;;;;;;;19.34;44.72;100096.91;5077760;28;20984;-72
2022/06/01 10:48:23;;;;;;;10.57;9.67;;;;;;;20.64;40.84;100095.91;5080874;28;20505;-71
2022/06/01 10:50:55;;;;;;;11.10;10.10;;;;;;;21.38;40.05;100096.56;5095730;28;20985;-69
2022/06/01 10:53:31;;;;;;;10.93;9.87;;;;;;;22.16;38.76;100084.66;5109213;28;20497;-68
2022/06/01 10:55:59;;;;;;;9.33;8.53;;;;;;;23.58;35.39;100081.13;5118833;28;20500;-68
2022/06/01 10:58:26;;;;;;;10.60;9.60;;;;;;;23.08;36.32;100090.34;5119980;28;20469;-72
2022/06/01 11:00:58;;;;;;;10.23;9.33;;;;;;;21.51;37.81;100085.69;5120332;28;20469;-69
2022/06/01 11:03:50;;;;;;;9.73;8.77;;;;;;;20.93;40.48;100089.19;5122907;28;20483;-69
2022/06/01 11:06:28;;;;;;;10.30;9.13;;;;;;;19.89;42.45;100083.34;5097309;27;20470;-72
2022/06/01 11:09:01;;;;;;;11.30;7.90;;;;;;;20.34;43.00;100088.16;5125498;28;20426;-72
2022/06/01 11:11:37;;;;;;;8.47;7.20;;;;;;;19.66;42.95;100080.13;5124186;28;20478;-72
2022/06/01 11:14:14;;;;;;;8.10;7.17;;;;;;;19.15;44.01;100090.34;5123806;28;20478;-69
2022/06/01 11:16:52;;;;;;;6.30;5.70;;;;;;;20.17;41.61;100084.19;5123409;27;20474;-69
2022/06/01 11:19:29;;;;;;;5.20;3.77;;;;;;;21.69;38.13;100090.38;5125445;28;20458;-70
2022/06/01 11:22:02;;;;;;;3.43;3.13;;;;;;;21.58;39.92;100088.38;5123349;27;20474;-69
2022/06/01 11:24:52;;;;;;;3.83;3.37;;;;;;;23.05;34.98;100087.22;5124887;28;20451;-68
2022/06/01 11:27:35;;;;;;;4.77;4.37;;;;;;;22.38;36.39;100072.34;5123436;27;21094;-67
2022/06/01 11:30:10;;;;;;;4.07;3.57;;;;;;;21.54;38.71;100087.13;5120743;28;20502;-68
2022/06/01 11:32:43;;;;;;;6.87;6.27;;;;;;;20.87;40.80;100090.88;5124015;28;20484;-71
2022/06/01 11:35:17;;;;;;;4.43;3.70;;;;;;;20.45;39.74;100097.56;5123853;28;20441;-72
2022/06/01 11:37:48;;;;;;;4.33;3.87;;;;;;;20.71;39.28;100088.63;5124935;28;20429;-69
2022/06/01 11:40:18;;;;;;;5.60;3.90;;;;;;;19.90;42.60;100103.16;5122587;28;20461;-69
2022/06/01 11:42:49;;;;;;;7.00;6.40;;;;;;;19.94;45.81;100090.84;5122209;28;20472;-68
2022/06/01 11:45:19;;;;;;;7.27;6.40;;;;;;;19.31;47.73;100091.03;5122687;28;20454;-74
2022/06/01 11:47:51;;;;;;;8.60;7.80;;;;;;;18.96;49.37;100085.66;5123909;28;20603;-70
2022/06/01 11:50:24;;;;;;;9.13;8.27;;;;;;;18.03;50.88;100085.72;5122612;27;20442;-71
2022/06/01 11:52:56;;;;;;;8.80;7.97;;;;;;;18.46;50.81;100083.00;5124159;28;20508;-70
2022/06/01 11:55:31;;;;;;;9.17;6.20;;;;;;;18.26;48.72;100090.94;5123476;27;20509;-68